createdAt,value
2023-06-15T00:00:25.447Z,36.29
2023-06-15T00:01:25.458Z,36.25
2023-06-15T00:02:25.517Z,36.31
2023-06-15T00:03:25.648Z,36.28
2023-06-15T00:04:25.521Z,36.29
2023-06-15T00:05:25.519Z,36.27
2023-06-15T00:06:25.528Z,36.26
2023-06-15T00:07:25.535Z,36.28
2023-06-15T00:08:25.554Z,36.24
2023-06-15T00:09:25.573Z,36.26
2023-06-15T00:10:25.594Z,36.29
2023-06-15T00:11:25.618Z,36.28
2023-06-15T00:12:25.631Z,36.24
2023-06-15T00:13:25.652Z,36.26
2023-06-15T00:14:25.682Z,36.26
2023-06-15T00:15:25.670Z,36.24
2023-06-15T00:16:25.854Z,36.26
2023-06-15T00:17:25.765Z,36.26
2023-06-15T00:18:25.746Z,36.28
2023-06-15T00:19:25.741Z,36.29
2023-06-15T00:20:25.756Z,36.28
2023-06-15T00:21:25.769Z,36.27
2023-06-15T00:22:25.777Z,36.28
2023-06-15T00:23:25.792Z,36.28
2023-06-15T00:24:25.824Z,36.25
2023-06-15T00:25:25.812Z,36.28
2023-06-15T00:26:25.827Z,36.26
2023-06-15T00:27:25.845Z,36.26
2023-06-15T00:28:25.853Z,36.28
2023-06-15T00:29:25.884Z,36.29
2023-06-15T00:30:25.882Z,36.24
2023-06-15T00:31:25.892Z,36.25
2023-06-15T00:32:25.950Z,36.24
2023-06-15T00:33:25.975Z,36.26
2023-06-15T00:34:25.933Z,36.19
2023-06-15T00:35:25.947Z,36.29
2023-06-15T00:36:25.952Z,36.25
2023-06-15T00:37:25.973Z,36.27
2023-06-15T00:38:26.060Z,36.25
2023-06-15T00:39:26.004Z,36.29
2023-06-15T00:40:26.021Z,36.25
2023-06-15T00:41:26.021Z,36.26
2023-06-15T00:42:26.039Z,36.28
2023-06-15T00:43:26.057Z,36.22
2023-06-15T00:44:26.069Z,36.24
2023-06-15T00:45:26.088Z,36.26
2023-06-15T00:46:26.124Z,36.28
2023-06-15T00:47:26.138Z,36.25
2023-06-15T00:48:26.122Z,36.25
2023-06-15T00:49:26.129Z,36.20
2023-06-15T00:50:26.167Z,36.23
2023-06-15T00:51:26.161Z,36.25
2023-06-15T00:52:26.186Z,36.27
2023-06-15T00:53:26.186Z,36.17
2023-06-15T00:54:26.212Z,36.23
2023-06-15T00:55:26.214Z,36.22
2023-06-15T00:56:26.227Z,36.24
2023-06-15T00:57:26.243Z,36.25
2023-06-15T00:58:26.262Z,36.26
2023-06-15T00:59:26.268Z,36.23
2023-06-15T01:00:26.280Z,36.25
2023-06-15T01:01:26.364Z,36.19
2023-06-15T01:02:26.302Z,36.23
2023-06-15T01:03:26.358Z,36.20
2023-06-15T01:04:26.342Z,36.19
2023-06-15T01:05:26.344Z,36.25
2023-06-15T01:06:26.359Z,36.17
2023-06-15T01:07:26.373Z,36.20
2023-06-15T01:08:26.403Z,36.18
2023-06-15T01:09:26.429Z,36.23
2023-06-15T01:10:26.424Z,36.22
2023-06-15T01:11:28.026Z,36.22
2023-06-15T01:12:26.394Z,36.23
2023-06-15T01:13:26.375Z,36.22
2023-06-15T01:14:26.372Z,36.26
2023-06-15T01:15:26.360Z,36.16
2023-06-15T01:16:26.347Z,36.25
2023-06-15T01:17:26.300Z,36.26
2023-06-15T01:18:26.263Z,36.19
2023-06-15T01:19:26.214Z,36.16
2023-06-15T01:20:26.192Z,36.21
2023-06-15T01:21:26.194Z,36.16
2023-06-15T01:22:26.179Z,36.20
2023-06-15T01:23:26.173Z,36.16
2023-06-15T01:24:26.143Z,36.22
2023-06-15T01:25:26.076Z,36.19
2023-06-15T01:26:26.025Z,36.25
2023-06-15T01:27:26.002Z,36.19
2023-06-15T01:28:25.996Z,36.19
2023-06-15T01:29:25.959Z,36.20
2023-06-15T01:30:25.929Z,36.20
2023-06-15T01:31:26.005Z,36.25
2023-06-15T01:32:25.904Z,36.20
2023-06-15T01:33:25.861Z,36.22
2023-06-15T01:34:25.866Z,36.20
2023-06-15T01:35:25.809Z,36.20
2023-06-15T01:36:25.779Z,36.23
2023-06-15T01:37:25.764Z,36.22
2023-06-15T01:38:25.725Z,36.26
2023-06-15T01:39:25.695Z,36.16
2023-06-15T01:40:25.672Z,36.19
2023-06-15T01:41:25.741Z,36.20
2023-06-15T01:42:25.624Z,36.19
2023-06-15T01:43:25.627Z,36.17
2023-06-15T01:44:25.575Z,36.16
2023-06-15T01:45:25.554Z,36.16
2023-06-15T01:46:25.546Z,36.22
2023-06-15T01:47:25.537Z,36.12
2023-06-15T01:48:25.469Z,36.17
2023-06-15T01:49:25.446Z,36.10
2023-06-15T01:50:25.415Z,36.22
2023-06-15T01:51:25.385Z,36.16
2023-06-15T01:52:25.360Z,36.14
2023-06-15T01:53:25.340Z,36.19
2023-06-15T01:54:25.306Z,36.16
2023-06-15T01:55:25.305Z,36.15
2023-06-15T01:56:25.270Z,36.17
2023-06-15T01:57:31.946Z,36.17
2023-06-15T01:58:26.227Z,36.17
2023-06-15T01:59:25.188Z,36.13
2023-06-15T02:00:25.177Z,36.19
2023-06-15T02:01:25.175Z,36.16
2023-06-15T02:02:25.142Z,36.16
2023-06-15T02:03:25.085Z,36.17
2023-06-15T02:04:25.059Z,36.16
2023-06-15T02:05:25.034Z,36.19
2023-06-15T02:06:24.997Z,36.14
2023-06-15T02:07:24.981Z,36.11
2023-06-15T02:08:24.957Z,36.16
2023-06-15T02:09:24.927Z,36.17
2023-06-15T02:10:24.907Z,36.17
2023-06-15T02:11:24.884Z,36.17
2023-06-15T02:12:24.873Z,36.13
2023-06-15T02:13:24.876Z,36.14
2023-06-15T02:14:24.892Z,36.16
2023-06-15T02:15:24.909Z,36.14
2023-06-15T02:16:24.926Z,36.14
2023-06-15T02:17:24.950Z,36.11
2023-06-15T02:18:24.981Z,36.14
2023-06-15T02:19:25.041Z,36.14
2023-06-15T02:20:25.018Z,36.14
2023-06-15T02:21:25.021Z,36.14
2023-06-15T02:22:25.044Z,36.16
2023-06-15T02:23:25.055Z,36.16
2023-06-15T02:24:25.171Z,36.17
2023-06-15T02:25:25.146Z,36.16
2023-06-15T02:26:25.111Z,36.11
2023-06-15T02:27:25.128Z,36.10
2023-06-15T02:28:25.144Z,36.11
2023-06-15T02:29:25.151Z,36.13
2023-06-15T02:30:25.187Z,36.14
2023-06-15T02:31:25.199Z,36.05
2023-06-15T02:32:25.238Z,36.11
2023-06-15T02:33:25.233Z,36.11
2023-06-15T02:34:25.303Z,36.09
2023-06-15T02:35:25.266Z,36.13
2023-06-15T02:36:25.289Z,36.14
2023-06-15T02:37:25.301Z,36.10
2023-06-15T02:38:25.327Z,36.13
2023-06-15T02:39:25.340Z,36.10
2023-06-15T02:40:25.355Z,36.13
2023-06-15T02:41:25.368Z,36.14
2023-06-15T02:42:25.393Z,36.11
2023-06-15T02:43:25.419Z,36.10
2023-06-15T02:44:25.445Z,36.14
2023-06-15T02:45:25.450Z,36.10
2023-06-15T02:46:25.474Z,36.13
2023-06-15T02:47:25.538Z,36.11
2023-06-15T02:48:25.514Z,36.11
2023-06-15T02:49:25.536Z,36.13
2023-06-15T02:50:25.597Z,36.11
2023-06-15T02:51:25.566Z,36.10
2023-06-15T02:52:25.593Z,36.11
2023-06-15T02:53:25.643Z,36.13
2023-06-15T02:54:25.637Z,36.10
2023-06-15T02:55:25.660Z,36.11
2023-06-15T02:56:25.676Z,36.11
2023-06-15T02:57:25.703Z,36.11
2023-06-15T02:58:25.741Z,36.07
2023-06-15T02:59:25.755Z,36.10
2023-06-15T03:00:25.762Z,36.10
2023-06-15T03:01:25.790Z,36.10
2023-06-15T03:02:25.810Z,36.10
2023-06-15T03:03:25.805Z,36.13
2023-06-15T03:04:25.826Z,36.08
2023-06-15T03:05:25.843Z,36.10
2023-06-15T03:06:25.906Z,36.07
2023-06-15T03:07:25.879Z,36.10
2023-06-15T03:08:25.899Z,36.09
2023-06-15T03:09:25.925Z,36.13
2023-06-15T03:10:25.937Z,36.04
2023-06-15T03:11:25.979Z,36.10
2023-06-15T03:12:25.972Z,36.09
2023-06-15T03:13:25.987Z,36.09
2023-06-15T03:14:26.010Z,36.10
2023-06-15T03:15:26.030Z,36.05
2023-06-15T03:16:26.111Z,36.10
2023-06-15T03:17:26.183Z,36.08
2023-06-15T03:18:26.093Z,36.07
2023-06-15T03:19:26.119Z,36.10
2023-06-15T03:20:26.242Z,36.13
2023-06-15T03:21:26.184Z,36.13
2023-06-15T03:22:26.167Z,36.10
2023-06-15T03:23:26.199Z,36.07
2023-06-15T03:24:26.323Z,36.11
2023-06-15T03:25:26.232Z,36.09
2023-06-15T03:26:26.241Z,36.13
2023-06-15T03:27:26.267Z,36.10
2023-06-15T03:28:26.285Z,36.14
2023-06-15T03:29:26.298Z,36.08
2023-06-15T03:30:26.313Z,36.09
2023-06-15T03:31:26.335Z,36.11
2023-06-15T03:32:26.404Z,36.08
2023-06-15T03:33:26.388Z,36.09
2023-06-15T03:34:26.401Z,36.05
2023-06-15T03:35:26.416Z,36.05
2023-06-15T03:36:26.435Z,36.07
2023-06-15T03:37:26.451Z,36.11
2023-06-15T03:38:26.471Z,36.07
2023-06-15T03:39:26.515Z,36.12
2023-06-15T03:40:26.520Z,36.07
2023-06-15T03:41:26.546Z,36.12
2023-06-15T03:42:26.560Z,36.10
2023-06-15T03:43:26.580Z,36.08
2023-06-15T03:44:26.640Z,36.05
2023-06-15T03:45:26.617Z,36.10
2023-06-15T03:46:26.657Z,36.08
2023-06-15T03:47:26.691Z,36.07
2023-06-15T03:48:26.685Z,36.07
2023-06-15T03:49:26.710Z,36.05
2023-06-15T03:50:26.738Z,36.08
2023-06-15T03:51:26.760Z,36.07
2023-06-15T03:52:26.788Z,36.10
2023-06-15T03:53:26.794Z,36.11
2023-06-15T03:54:26.866Z,36.04
2023-06-15T03:55:26.846Z,36.05
2023-06-15T03:56:26.891Z,36.10
2023-06-15T03:57:26.893Z,36.09
2023-06-15T03:58:26.909Z,36.07
2023-06-15T03:59:26.930Z,36.07
2023-06-15T04:00:26.954Z,36.07
2023-06-15T04:01:27.000Z,36.05
2023-06-15T04:02:27.063Z,36.07
2023-06-15T04:03:27.080Z,36.04
2023-06-15T04:04:27.080Z,36.07
2023-06-15T04:05:27.081Z,36.07
2023-06-15T04:06:27.082Z,36.12
2023-06-15T04:07:27.109Z,36.02
2023-06-15T04:08:27.134Z,36.04
2023-06-15T04:09:27.193Z,36.05
2023-06-15T04:10:27.254Z,36.09
2023-06-15T04:11:27.225Z,36.05
2023-06-15T04:12:27.227Z,36.05
2023-06-15T04:13:27.280Z,36.10
2023-06-15T04:14:27.293Z,36.02
2023-06-15T04:15:27.300Z,36.02
2023-06-15T04:16:27.311Z,36.05
2023-06-15T04:17:27.372Z,36.09
2023-06-15T04:18:27.459Z,36.02
2023-06-15T04:19:27.395Z,36.10
2023-06-15T04:20:27.404Z,36.07
2023-06-15T04:21:27.439Z,36.04
2023-06-15T04:22:27.448Z,36.02
2023-06-15T04:23:27.483Z,36.07
2023-06-15T04:24:27.552Z,36.09
2023-06-15T04:25:27.533Z,36.09
2023-06-15T04:26:27.579Z,36.04
2023-06-15T04:27:27.586Z,36.10
2023-06-15T04:28:27.635Z,36.04
2023-06-15T04:29:27.642Z,36.05
2023-06-15T04:30:27.660Z,36.05
2023-06-15T04:31:27.684Z,36.08
2023-06-15T04:32:27.712Z,36.01
2023-06-15T04:33:27.718Z,36.05
2023-06-15T04:34:27.768Z,36.02
2023-06-15T04:35:27.781Z,36.04
2023-06-15T04:36:27.801Z,36.05
2023-06-15T04:37:27.833Z,36.04
2023-06-15T04:38:27.862Z,36.07
2023-06-15T04:39:27.887Z,36.01
2023-06-15T04:40:27.935Z,36.08
2023-06-15T04:41:27.947Z,36.07
2023-06-15T04:42:27.981Z,36.05
2023-06-15T04:43:28.006Z,36.07
2023-06-15T04:44:28.016Z,36.10
2023-06-15T04:45:28.066Z,36.07
2023-06-15T04:46:28.072Z,36.10
2023-06-15T04:47:28.130Z,36.01
2023-06-15T04:48:28.146Z,36.05
2023-06-15T04:49:28.168Z,36.08
2023-06-15T04:50:28.197Z,36.05
2023-06-15T04:51:28.228Z,36.07
2023-06-15T04:52:28.254Z,36.07
2023-06-15T04:53:28.278Z,36.07
2023-06-15T04:54:28.306Z,36.10
2023-06-15T04:55:28.314Z,36.07
2023-06-15T04:56:28.343Z,36.07
2023-06-15T04:57:28.380Z,36.07
2023-06-15T04:58:28.412Z,36.11
2023-06-15T04:59:28.447Z,36.05
2023-06-15T05:00:28.468Z,36.15
2023-06-15T05:01:28.502Z,36.69
2023-06-15T05:02:28.599Z,37.38
2023-06-15T05:03:28.595Z,37.55
2023-06-15T05:04:28.586Z,37.64
2023-06-15T05:05:28.619Z,37.75
2023-06-15T05:06:28.647Z,37.53
2023-06-15T05:07:28.664Z,37.84
2023-06-15T05:08:28.713Z,37.73
2023-06-15T05:09:28.760Z,37.75
2023-06-15T05:10:44.772Z,37.75
2023-06-15T05:11:29.758Z,37.70
2023-06-15T05:12:28.740Z,37.87
2023-06-15T05:13:28.734Z,37.96
2023-06-15T05:14:28.712Z,37.60
2023-06-15T05:15:28.695Z,37.84
2023-06-15T05:16:28.693Z,37.99
2023-06-15T05:17:28.725Z,38.15
2023-06-15T05:18:28.676Z,38.08
2023-06-15T05:19:28.655Z,38.35
2023-06-15T05:20:28.633Z,38.04
2023-06-15T05:21:28.620Z,37.88
2023-06-15T05:22:28.613Z,37.73
2023-06-15T05:23:28.680Z,37.85
2023-06-15T05:24:28.768Z,37.76
2023-06-15T05:25:28.777Z,37.03
2023-06-15T05:26:30.633Z,35.57
2023-06-15T05:27:28.758Z,33.39
2023-06-15T05:28:28.790Z,34.96
2023-06-15T05:29:28.797Z,33.47
2023-06-15T05:30:28.904Z,33.04
2023-06-15T05:31:28.886Z,32.36
2023-06-15T05:32:28.863Z,32.02
2023-06-15T05:33:28.880Z,30.98
2023-06-15T05:34:28.871Z,30.53
2023-06-15T05:35:28.889Z,30.45
2023-06-15T05:36:34.520Z,30.79
2023-06-15T05:37:29.899Z,30.52
2023-06-15T05:38:28.910Z,30.54
2023-06-15T05:39:28.936Z,30.74
2023-06-15T05:40:28.935Z,30.68
2023-06-15T05:41:28.938Z,30.52
2023-06-15T05:42:28.967Z,30.58
2023-06-15T05:43:28.955Z,30.83
2023-06-15T05:44:28.978Z,31.43
2023-06-15T05:45:29.018Z,31.71
2023-06-15T05:46:28.982Z,31.76
2023-06-15T05:47:29.065Z,32.19
2023-06-15T05:48:28.987Z,32.91
2023-06-15T05:49:28.991Z,32.86
2023-06-15T05:50:29.001Z,32.99
2023-06-15T05:51:28.980Z,34.19
2023-06-15T05:52:30.252Z,34.22
2023-06-15T05:53:28.954Z,34.25
2023-06-15T05:54:28.954Z,34.28
2023-06-15T05:55:28.933Z,35.48
2023-06-15T05:56:28.936Z,35.19
2023-06-15T05:57:28.981Z,34.41
2023-06-15T05:58:29.021Z,35.04
2023-06-15T05:59:34.210Z,35.08
2023-06-15T06:00:30.041Z,35.37
2023-06-15T06:01:29.030Z,34.25
2023-06-15T06:02:29.038Z,34.81
2023-06-15T06:03:28.995Z,35.18
2023-06-15T06:04:28.986Z,35.30
2023-06-15T06:05:28.968Z,34.69
2023-06-15T06:06:28.990Z,34.89
2023-06-15T06:07:28.931Z,34.46
2023-06-15T06:08:28.921Z,34.19
2023-06-15T06:09:28.915Z,34.33
2023-06-15T06:10:28.942Z,34.85
2023-06-15T06:11:28.897Z,34.43
2023-06-15T06:12:28.945Z,34.26
2023-06-15T06:13:28.988Z,34.30
2023-06-15T06:14:29.039Z,34.29
2023-06-15T06:15:29.054Z,34.16
2023-06-15T06:16:29.075Z,34.12
2023-06-15T06:17:45.990Z,34.06
2023-06-15T06:18:30.146Z,34.41
2023-06-15T06:19:29.064Z,34.99
2023-06-15T06:20:29.044Z,35.19
2023-06-15T06:21:29.017Z,35.09
2023-06-15T06:22:29.004Z,35.43
2023-06-15T06:23:28.999Z,36.14
2023-06-15T06:24:29.043Z,35.66
2023-06-15T06:25:28.999Z,35.86
2023-06-15T06:26:28.980Z,35.93
2023-06-15T06:27:28.948Z,35.05
2023-06-15T06:28:28.951Z,35.23
2023-06-15T06:29:28.957Z,35.74
2023-06-15T06:30:28.989Z,35.73
2023-06-15T06:31:29.027Z,35.68
2023-06-15T06:32:29.102Z,35.68
2023-06-15T06:33:29.073Z,35.64
2023-06-15T06:34:29.113Z,35.56
2023-06-15T06:35:29.136Z,35.62
2023-06-15T06:36:29.860Z,35.54
2023-06-15T06:37:29.178Z,35.49
2023-06-15T06:38:29.201Z,35.52
2023-06-15T06:39:29.234Z,35.42
2023-06-15T06:40:29.277Z,35.49
2023-06-15T06:41:29.289Z,35.49
2023-06-15T06:42:29.322Z,35.39
2023-06-15T06:43:29.360Z,35.23
2023-06-15T06:44:29.389Z,35.30
2023-06-15T06:45:30.559Z,35.40
2023-06-15T06:46:29.438Z,35.48
2023-06-15T06:47:29.522Z,35.51
2023-06-15T06:48:29.496Z,35.47
2023-06-15T06:49:29.529Z,35.47
2023-06-15T06:50:29.566Z,35.51
2023-06-15T06:51:29.646Z,35.50
2023-06-15T06:52:29.609Z,35.46
2023-06-15T06:53:29.712Z,35.49
2023-06-15T06:54:29.668Z,35.46
2023-06-15T06:55:29.687Z,35.46
2023-06-15T06:56:29.734Z,35.54
2023-06-15T06:57:29.755Z,35.54
2023-06-15T06:58:29.783Z,35.46
2023-06-15T06:59:42.455Z,35.52
2023-06-15T07:00:30.798Z,35.46
2023-06-15T07:01:29.780Z,35.45
2023-06-15T07:02:29.893Z,35.42
2023-06-15T07:03:29.807Z,35.39
2023-06-15T07:04:29.725Z,35.36
2023-06-15T07:05:29.701Z,35.24
2023-06-15T07:06:29.685Z,35.26
2023-06-15T07:07:29.667Z,35.25
2023-06-15T07:08:30.355Z,35.29
2023-06-15T07:09:29.598Z,35.33
2023-06-15T07:10:29.577Z,35.30
2023-06-15T07:11:29.550Z,35.20
2023-06-15T07:12:29.534Z,35.22
2023-06-15T07:13:29.512Z,35.27
2023-06-15T07:14:29.510Z,35.97
2023-06-15T07:15:29.485Z,35.87
2023-06-15T07:16:29.482Z,35.84
2023-06-15T07:17:29.494Z,36.07
2023-06-15T07:18:30.377Z,35.98
2023-06-15T07:19:29.445Z,35.87
2023-06-15T07:20:29.460Z,36.35
2023-06-15T07:21:29.475Z,36.06
2023-06-15T07:22:29.479Z,35.99
2023-06-15T07:23:38.156Z,35.99
2023-06-15T07:24:31.563Z,35.94
2023-06-15T07:25:29.486Z,35.93
2023-06-15T07:26:29.457Z,35.90
2023-06-15T07:27:29.446Z,35.92
2023-06-15T07:28:29.435Z,35.89
2023-06-15T07:29:29.396Z,35.88
2023-06-15T07:30:29.379Z,35.87
2023-06-15T07:31:29.883Z,35.89
2023-06-15T07:32:29.363Z,35.85
2023-06-15T07:33:29.318Z,35.90
2023-06-15T07:34:29.932Z,35.84
2023-06-15T07:35:29.267Z,35.89
2023-06-15T07:36:29.280Z,35.94
2023-06-15T07:37:29.366Z,35.88
2023-06-15T07:38:29.309Z,35.90
2023-06-15T07:39:29.333Z,35.88
2023-06-15T07:40:29.352Z,35.91
2023-06-15T07:41:29.374Z,35.85
2023-06-15T07:42:29.386Z,35.82
2023-06-15T07:43:29.416Z,35.82
2023-06-15T07:44:29.431Z,35.77
2023-06-15T07:45:29.441Z,35.78
2023-06-15T07:46:29.454Z,35.79
2023-06-15T07:47:29.532Z,35.85
2023-06-15T07:48:29.520Z,35.82
2023-06-15T07:49:44.268Z,35.60
2023-06-15T07:50:30.503Z,35.74
2023-06-15T07:51:41.344Z,34.23
2023-06-15T07:52:30.457Z,35.00
2023-06-15T07:53:29.445Z,35.19
2023-06-15T07:54:29.416Z,33.92
2023-06-15T07:55:29.973Z,33.92
2023-06-15T07:56:29.377Z,33.88
2023-06-15T07:57:29.358Z,33.76
2023-06-15T07:58:29.336Z,33.88
2023-06-15T07:59:29.318Z,34.04
2023-06-15T08:00:29.308Z,34.00
2023-06-15T08:01:29.283Z,34.93
2023-06-15T08:02:29.254Z,34.96
2023-06-15T08:03:29.266Z,34.61
2023-06-15T08:04:29.207Z,34.79
2023-06-15T08:05:29.201Z,34.82
2023-06-15T08:06:29.230Z,34.97
2023-06-15T08:07:29.246Z,35.12
2023-06-15T08:08:29.982Z,35.33
2023-06-15T08:09:29.304Z,35.34
2023-06-15T08:10:29.304Z,35.28
2023-06-15T08:11:29.386Z,35.85
2023-06-15T08:12:29.375Z,36.02
2023-06-15T08:13:29.426Z,35.97
2023-06-15T08:14:29.468Z,36.02
2023-06-15T08:15:29.491Z,36.00
2023-06-15T08:16:29.543Z,35.79
2023-06-15T08:17:29.601Z,35.12
2023-06-15T08:18:29.652Z,35.48
2023-06-15T08:19:29.685Z,36.34
2023-06-15T08:20:29.727Z,35.94
2023-06-15T08:21:29.782Z,36.09
2023-06-15T08:22:29.846Z,35.53
2023-06-15T08:23:29.891Z,35.68
2023-06-15T08:24:30.052Z,35.66
2023-06-15T08:25:29.989Z,35.04
2023-06-15T08:26:29.972Z,35.44
2023-06-15T08:27:30.003Z,35.67
2023-06-15T08:28:34.036Z,35.72
2023-06-15T08:29:30.001Z,35.73
2023-06-15T08:30:29.968Z,35.47
2023-06-15T08:31:29.951Z,35.47
2023-06-15T08:32:29.931Z,35.40
2023-06-15T08:33:29.884Z,35.33
2023-06-15T08:34:29.865Z,35.47
2023-06-15T08:35:29.828Z,35.31
2023-06-15T08:36:29.813Z,35.39
2023-06-15T08:37:29.843Z,35.36
2023-06-15T08:38:29.762Z,35.64
2023-06-15T08:39:29.736Z,35.66
2023-06-15T08:40:29.715Z,35.71
2023-06-15T08:41:29.692Z,35.63
2023-06-15T08:42:29.664Z,35.68
2023-06-15T08:43:29.787Z,35.55
2023-06-15T08:44:29.624Z,35.59
2023-06-15T08:45:29.596Z,35.57
2023-06-15T08:46:29.598Z,35.41
2023-06-15T08:47:29.613Z,35.24
2023-06-15T08:48:29.613Z,35.37
2023-06-15T08:49:29.622Z,35.11
2023-06-15T08:50:29.653Z,35.10
2023-06-15T08:51:30.512Z,35.23
2023-06-15T08:52:29.827Z,35.17
2023-06-15T08:53:29.744Z,35.35
2023-06-15T08:54:29.727Z,35.42
2023-06-15T08:55:29.751Z,35.44
2023-06-15T08:56:29.753Z,35.51
2023-06-15T08:57:29.763Z,35.41
2023-06-15T08:58:29.759Z,35.49
2023-06-15T08:59:30.049Z,35.50
2023-06-15T09:00:29.794Z,35.53
2023-06-15T09:01:29.790Z,35.53
2023-06-15T09:02:29.823Z,35.48
2023-06-15T09:03:29.959Z,35.51
2023-06-15T09:04:29.892Z,35.54
2023-06-15T09:05:29.849Z,35.50
2023-06-15T09:06:29.837Z,35.49
2023-06-15T09:07:29.837Z,35.50
2023-06-15T09:08:29.864Z,35.58
2023-06-15T09:09:29.876Z,35.56
2023-06-15T09:10:29.880Z,35.56
2023-06-15T09:11:31.531Z,35.58
2023-06-15T09:12:29.932Z,35.58
2023-06-15T09:13:29.828Z,35.61
2023-06-15T09:14:29.810Z,35.57
2023-06-15T09:15:29.903Z,35.61
2023-06-15T09:16:29.757Z,35.71
2023-06-15T09:17:29.812Z,35.63
2023-06-15T09:18:29.708Z,35.66
2023-06-15T09:19:29.661Z,35.62
2023-06-15T09:20:29.636Z,35.72
2023-06-15T09:21:29.612Z,35.87
2023-06-15T09:22:29.631Z,35.81
2023-06-15T09:23:29.584Z,35.81
2023-06-15T09:24:29.609Z,35.88
2023-06-15T09:25:29.536Z,35.91
2023-06-15T09:26:29.509Z,35.82
2023-06-15T09:27:29.501Z,35.83
2023-06-15T09:28:29.490Z,35.93
2023-06-15T09:29:29.497Z,35.90
2023-06-15T09:30:29.450Z,35.93
2023-06-15T09:31:29.527Z,35.97
2023-06-15T09:32:29.484Z,35.96
2023-06-15T09:33:29.373Z,35.94
2023-06-15T09:34:29.351Z,35.97
2023-06-15T09:35:29.332Z,35.98
2023-06-15T09:36:29.971Z,35.84
2023-06-15T09:37:30.042Z,35.88
2023-06-15T09:38:29.291Z,35.88
2023-06-15T09:39:30.977Z,35.88
2023-06-15T09:40:29.243Z,35.89
2023-06-15T09:41:29.220Z,35.84
2023-06-15T09:42:29.273Z,35.90
2023-06-15T09:43:29.172Z,35.86
2023-06-15T09:44:29.196Z,35.94
2023-06-15T09:45:29.142Z,35.93
2023-06-15T09:46:29.129Z,35.93
2023-06-15T09:47:29.154Z,35.96
2023-06-15T09:48:29.077Z,36.00
2023-06-15T09:49:29.054Z,35.95
2023-06-15T09:50:29.036Z,35.97
2023-06-15T09:51:31.726Z,35.98
2023-06-15T09:52:28.992Z,35.99
2023-06-15T09:53:28.986Z,35.93
2023-06-15T09:54:28.961Z,36.00
2023-06-15T09:55:28.933Z,35.93
2023-06-15T09:56:31.346Z,35.90
2023-06-15T09:57:29.136Z,35.84
2023-06-15T09:58:29.140Z,35.79
2023-06-15T09:59:29.164Z,35.81
2023-06-15T10:00:29.167Z,35.88
2023-06-15T10:01:29.174Z,36.03
2023-06-15T10:02:29.277Z,36.12
2023-06-15T10:03:30.092Z,36.20
2023-06-15T10:04:29.392Z,36.22
2023-06-15T10:05:29.228Z,36.18
2023-06-15T10:06:29.246Z,36.22
2023-06-15T10:07:29.252Z,36.18
2023-06-15T10:08:29.286Z,35.80
2023-06-15T10:09:29.301Z,35.97
2023-06-15T10:10:29.377Z,36.02
2023-06-15T10:11:29.430Z,36.38
2023-06-15T10:12:29.468Z,36.28
2023-06-15T10:13:29.511Z,36.30
2023-06-15T10:14:29.570Z,35.63
2023-06-15T10:15:32.235Z,36.04
2023-06-15T10:16:29.535Z,35.76
2023-06-15T10:17:29.527Z,35.49
2023-06-15T10:18:29.517Z,35.71
2023-06-15T10:19:29.486Z,35.79
2023-06-15T10:20:29.472Z,35.72
2023-06-15T10:21:29.438Z,35.69
2023-06-15T10:22:29.423Z,35.88
2023-06-15T10:23:40.938Z,35.80
2023-06-15T10:24:30.507Z,36.03
2023-06-15T10:25:29.360Z,35.91
2023-06-15T10:26:29.340Z,35.88
2023-06-15T10:27:30.016Z,36.01
2023-06-15T10:28:29.309Z,35.98
2023-06-15T10:29:29.268Z,35.94
2023-06-15T10:30:29.237Z,36.15
2023-06-15T10:31:29.205Z,35.87
2023-06-15T10:32:29.204Z,36.15
2023-06-15T10:33:29.156Z,36.05
2023-06-15T10:34:29.123Z,36.17
2023-06-15T10:35:29.111Z,35.94
2023-06-15T10:36:29.072Z,36.19
2023-06-15T10:37:29.042Z,36.26
2023-06-15T10:38:29.019Z,36.13
2023-06-15T10:39:28.996Z,36.16
2023-06-15T10:40:28.968Z,36.14
2023-06-15T10:41:28.947Z,36.14
2023-06-15T10:42:28.926Z,36.30
2023-06-15T10:43:28.944Z,36.31
2023-06-15T10:44:28.964Z,36.35
2023-06-15T10:45:29.000Z,36.39
2023-06-15T10:46:29.030Z,36.36
2023-06-15T10:47:29.087Z,36.73
2023-06-15T10:48:29.099Z,36.57
2023-06-15T10:49:29.078Z,36.29
2023-06-15T10:50:29.097Z,36.33
2023-06-15T10:51:29.121Z,36.31
2023-06-15T10:52:29.229Z,36.32
2023-06-15T10:53:29.174Z,36.36
2023-06-15T10:54:29.239Z,36.52
2023-06-15T10:55:29.236Z,36.68
2023-06-15T10:56:29.287Z,36.62
2023-06-15T10:57:29.313Z,36.84
2023-06-15T10:58:29.344Z,36.83
2023-06-15T10:59:29.388Z,36.73
2023-06-15T11:00:29.506Z,36.98
2023-06-15T11:01:29.461Z,36.43
2023-06-15T11:02:29.922Z,36.52
2023-06-15T11:03:29.553Z,36.76
2023-06-15T11:04:29.663Z,36.83
2023-06-15T11:05:29.658Z,37.71
2023-06-15T11:06:29.717Z,37.71
2023-06-15T11:07:29.776Z,37.43
2023-06-15T11:08:29.822Z,37.58
2023-06-15T11:09:29.867Z,37.74
2023-06-15T11:10:29.935Z,37.43
2023-06-15T11:11:29.969Z,37.80
2023-06-15T11:12:30.000Z,37.74
2023-06-15T11:13:30.060Z,37.67
2023-06-15T11:14:30.055Z,37.56
2023-06-15T11:15:30.058Z,37.26
2023-06-15T11:16:30.066Z,37.45
2023-06-15T11:17:30.141Z,37.24
2023-06-15T11:18:30.086Z,37.10
2023-06-15T11:19:30.112Z,35.75
2023-06-15T11:20:30.108Z,35.05
2023-06-15T11:21:30.169Z,35.43
2023-06-15T11:22:30.146Z,35.53
2023-06-15T11:23:30.202Z,35.39
2023-06-15T11:24:30.291Z,35.74
2023-06-15T11:25:30.149Z,35.71
2023-06-15T11:26:30.224Z,35.46
2023-06-15T11:27:30.157Z,35.39
2023-06-15T11:28:36.679Z,36.02
2023-06-15T11:29:31.117Z,36.41
2023-06-15T11:30:31.279Z,35.55
2023-06-15T11:31:30.669Z,35.19
2023-06-15T11:32:30.076Z,35.17
2023-06-15T11:33:30.025Z,35.79
2023-06-15T11:34:29.977Z,35.87
2023-06-15T11:35:29.952Z,35.75
2023-06-15T11:36:29.922Z,35.46
2023-06-15T11:37:29.897Z,35.11
2023-06-15T11:38:29.876Z,35.31
2023-06-15T11:39:29.837Z,35.08
2023-06-15T11:40:29.805Z,35.71
2023-06-15T11:41:29.783Z,35.71
2023-06-15T11:42:29.766Z,35.28
2023-06-15T11:43:29.737Z,34.38
2023-06-15T11:44:29.702Z,35.47
2023-06-15T11:45:29.679Z,34.80
2023-06-15T11:46:29.655Z,35.11
2023-06-15T11:47:29.684Z,35.34
2023-06-15T11:48:29.604Z,35.73
2023-06-15T11:49:29.584Z,35.81
2023-06-15T11:50:29.551Z,35.87
2023-06-15T11:51:29.523Z,35.87
2023-06-15T11:52:29.484Z,36.04
2023-06-15T11:53:29.460Z,35.97
2023-06-15T11:54:44.895Z,35.37
2023-06-15T11:55:30.394Z,35.46
2023-06-15T11:56:29.362Z,35.50
2023-06-15T11:57:29.329Z,34.82
2023-06-15T11:58:29.306Z,34.61
2023-06-15T11:59:29.271Z,34.79
2023-06-15T12:00:29.229Z,34.48
2023-06-15T12:01:31.295Z,34.16
2023-06-15T12:02:29.195Z,34.57
2023-06-15T12:03:29.176Z,35.02
2023-06-15T12:04:29.244Z,35.48
2023-06-15T12:05:29.111Z,35.66
2023-06-15T12:06:29.072Z,35.59
2023-06-15T12:07:38.100Z,35.64
2023-06-15T12:08:30.024Z,35.82
2023-06-15T12:09:28.991Z,35.73
2023-06-15T12:10:28.958Z,35.73
2023-06-15T12:11:29.042Z,35.85
2023-06-15T12:12:28.895Z,35.88
2023-06-15T12:13:28.867Z,35.81
2023-06-15T12:14:28.866Z,35.66
2023-06-15T12:15:28.809Z,35.84
2023-06-15T12:16:28.799Z,35.75
2023-06-15T12:17:28.760Z,35.30
2023-06-15T12:18:28.785Z,35.14
2023-06-15T12:19:28.685Z,34.09
2023-06-15T12:20:28.655Z,34.73
2023-06-15T12:21:28.627Z,34.48
2023-06-15T12:22:36.428Z,34.99
2023-06-15T12:23:29.552Z,34.44
2023-06-15T12:24:28.595Z,34.57
2023-06-15T12:25:28.526Z,34.54
2023-06-15T12:26:28.470Z,35.49
2023-06-15T12:27:28.500Z,35.66
2023-06-15T12:28:28.417Z,35.51
2023-06-15T12:29:29.142Z,34.71
2023-06-15T12:30:28.352Z,34.86
2023-06-15T12:31:28.317Z,35.20
2023-06-15T12:32:28.377Z,35.35
2023-06-15T12:33:28.303Z,35.44
2023-06-15T12:34:28.231Z,36.08
2023-06-15T12:35:29.315Z,36.16
2023-06-15T12:36:28.170Z,36.17
2023-06-15T12:37:33.060Z,36.08
2023-06-15T12:38:29.130Z,36.04
2023-06-15T12:39:28.114Z,35.91
2023-06-15T12:40:28.058Z,35.87
2023-06-15T12:41:28.037Z,35.94
2023-06-15T12:42:28.592Z,35.92
2023-06-15T12:43:27.964Z,35.76
2023-06-15T12:44:27.948Z,36.03
2023-06-15T12:45:27.944Z,36.46
2023-06-15T12:46:27.956Z,36.63
2023-06-15T12:47:27.877Z,36.78
2023-06-15T12:48:28.650Z,36.50
2023-06-15T12:49:27.828Z,36.39
2023-06-15T12:50:27.854Z,37.19
2023-06-15T12:51:28.657Z,37.14
2023-06-15T12:52:27.809Z,36.94